createdAt,value
2022-09-16T00:01:14.521Z,18.00
2022-09-16T00:03:43.619Z,18.00
2022-09-16T00:06:19.789Z,17.90
2022-09-16T00:08:48.659Z,17.90
2022-09-16T00:11:17.354Z,17.80
2022-09-16T00:13:46.032Z,17.70
2022-09-16T00:16:19.524Z,17.70
2022-09-16T00:18:48.668Z,17.70
2022-09-16T00:21:17.517Z,17.70
2022-09-16T00:23:45.955Z,17.70
2022-09-16T00:26:14.497Z,17.80
2022-09-16T00:28:42.954Z,17.70
2022-09-16T00:31:11.483Z,17.70
2022-09-16T00:33:41.343Z,17.70
2022-09-16T00:36:11.447Z,17.70
2022-09-16T00:38:40.294Z,17.70
2022-09-16T00:41:09.241Z,17.70
2022-09-16T00:43:55.767Z,17.70
2022-09-16T00:46:31.816Z,17.70
2022-09-16T00:49:04.581Z,17.60
2022-09-16T00:51:33.603Z,17.60
2022-09-16T00:54:04.460Z,17.60
2022-09-16T00:56:35.876Z,17.60
2022-09-16T00:59:08.419Z,17.50
2022-09-16T01:01:37.350Z,17.50
2022-09-16T01:04:10.728Z,17.50
2022-09-16T01:06:40.180Z,17.50
2022-09-16T01:09:08.873Z,17.50
2022-09-16T01:11:37.311Z,17.50
2022-09-16T01:14:24.512Z,17.50
2022-09-16T01:16:59.234Z,17.60
2022-09-16T01:19:44.347Z,17.60
2022-09-16T01:22:22.456Z,17.60
2022-09-16T01:24:53.979Z,17.60
2022-09-16T01:27:48.789Z,17.70
2022-09-16T01:30:44.048Z,17.70
2022-09-16T01:33:19.382Z,17.70
2022-09-16T01:36:01.400Z,17.70
2022-09-16T01:38:53.751Z,17.70
2022-09-16T01:41:28.346Z,17.60
2022-09-16T01:44:02.014Z,17.60
2022-09-16T01:46:37.825Z,17.50
2022-09-16T01:49:16.012Z,17.50
2022-09-16T01:51:50.479Z,17.50
2022-09-16T01:54:22.892Z,17.40
2022-09-16T01:56:55.586Z,17.30
2022-09-16T01:59:29.638Z,17.30
2022-09-16T02:02:02.024Z,17.30
2022-09-16T02:04:36.313Z,17.30
2022-09-16T02:07:08.193Z,17.30
2022-09-16T02:09:40.428Z,17.40
2022-09-16T02:12:12.447Z,17.40
2022-09-16T02:14:43.920Z,17.40
2022-09-16T02:17:15.809Z,17.40
2022-09-16T02:19:47.948Z,17.30
2022-09-16T02:22:20.091Z,17.30
2022-09-16T02:24:49.650Z,17.40
2022-09-16T02:27:20.754Z,17.30
2022-09-16T02:29:52.543Z,17.40
2022-09-16T02:32:21.827Z,17.40
2022-09-16T02:34:52.846Z,17.40
2022-09-16T02:37:23.554Z,17.40
2022-09-16T02:39:56.697Z,17.40
2022-09-16T02:42:25.332Z,17.40
2022-09-16T02:44:53.815Z,17.40
2022-09-16T02:47:28.088Z,17.40
2022-09-16T02:50:01.247Z,17.30
2022-09-16T02:52:35.450Z,17.30
2022-09-16T02:55:07.254Z,17.30
2022-09-16T02:57:36.254Z,17.20
2022-09-16T03:00:05.390Z,17.20
2022-09-16T03:02:34.340Z,17.10
2022-09-16T03:05:04.630Z,17.10
2022-09-16T03:07:33.334Z,17.10
2022-09-16T03:10:01.943Z,17.00
2022-09-16T03:12:50.146Z,17.00
2022-09-16T03:15:47.414Z,17.10
2022-09-16T03:18:51.866Z,17.10
2022-09-16T03:21:27.294Z,17.10
2022-09-16T03:24:01.103Z,17.20
2022-09-16T03:26:36.527Z,17.20
2022-09-16T03:29:14.023Z,17.10
2022-09-16T03:31:48.158Z,17.00
2022-09-16T03:34:21.407Z,17.00
2022-09-16T03:36:54.330Z,17.10
2022-09-16T03:39:23.376Z,17.10
2022-09-16T03:41:52.851Z,17.10
2022-09-16T03:44:21.283Z,17.20
2022-09-16T03:46:49.714Z,17.20
2022-09-16T03:49:18.681Z,17.30
2022-09-16T03:51:47.161Z,17.30
2022-09-16T03:54:16.939Z,17.20
2022-09-16T03:56:45.435Z,17.30
2022-09-16T03:59:14.029Z,17.40
2022-09-16T04:01:42.569Z,17.40
2022-09-16T04:04:12.337Z,17.50
2022-09-16T04:06:41.099Z,17.50
2022-09-16T04:09:12.224Z,17.50
2022-09-16T04:11:42.090Z,17.50
2022-09-16T04:14:15.619Z,17.70
2022-09-16T04:16:45.415Z,17.80
2022-09-16T04:19:15.159Z,18.00
2022-09-16T04:21:43.975Z,18.10
2022-09-16T04:24:13.616Z,18.20
2022-09-16T04:26:43.968Z,18.40
2022-09-16T04:29:12.728Z,18.50
2022-09-16T04:31:41.139Z,18.60
2022-09-16T04:34:11.864Z,18.70
2022-09-16T04:36:40.664Z,18.70
2022-09-16T04:39:09.465Z,18.80
2022-09-16T04:41:37.950Z,18.90
2022-09-16T04:44:07.687Z,18.90
2022-09-16T04:46:36.203Z,19.00
2022-09-16T04:49:05.279Z,19.00
2022-09-16T04:51:33.774Z,19.00
2022-09-16T04:54:02.710Z,19.10
2022-09-16T04:56:33.297Z,19.10
2022-09-16T04:59:03.313Z,19.10
2022-09-16T05:01:34.501Z,19.10
2022-09-16T05:04:04.518Z,19.10
2022-09-16T05:06:34.955Z,19.20
2022-09-16T05:09:04.056Z,19.20
2022-09-16T05:11:35.004Z,19.10
2022-09-16T05:14:04.955Z,18.90
2022-09-16T05:16:35.465Z,18.70
2022-09-16T05:19:05.004Z,18.50
2022-09-16T05:24:04.487Z,17.40
2022-09-16T05:26:35.315Z,17.30
2022-09-16T05:29:05.398Z,17.10
2022-09-16T05:31:37.393Z,17.00
2022-09-16T05:34:07.540Z,17.00
2022-09-16T05:36:39.140Z,16.90
2022-09-16T05:39:24.806Z,16.90
2022-09-16T05:41:55.926Z,16.90
2022-09-16T05:44:24.619Z,17.00
2022-09-16T05:46:54.539Z,17.00
2022-09-16T05:49:23.718Z,17.00
2022-09-16T05:51:52.964Z,17.00
2022-09-16T05:54:23.833Z,17.00
2022-09-16T05:56:52.485Z,17.00
2022-09-16T05:59:20.960Z,17.10
2022-09-16T06:01:49.531Z,17.10
2022-09-16T06:04:19.329Z,17.00
2022-09-16T06:06:48.358Z,16.90
2022-09-16T06:09:19.028Z,16.90
2022-09-16T06:11:49.000Z,16.80
2022-09-16T06:14:18.337Z,16.90
2022-09-16T06:16:47.125Z,17.00
2022-09-16T06:19:17.248Z,17.00
2022-09-16T06:21:47.784Z,17.00
2022-09-16T06:24:18.294Z,17.00
2022-09-16T06:26:47.645Z,17.00
2022-09-16T06:29:16.744Z,17.00
2022-09-16T06:31:45.157Z,16.90
2022-09-16T06:34:16.582Z,16.90
2022-09-16T06:36:46.417Z,17.00
2022-09-16T06:39:15.767Z,16.90
2022-09-16T06:41:44.459Z,16.90
2022-09-16T06:44:13.188Z,17.00
2022-09-16T06:46:41.641Z,16.90
2022-09-16T06:49:11.451Z,16.90
2022-09-16T06:51:40.119Z,17.00
2022-09-16T06:54:11.152Z,17.00
2022-09-16T06:56:41.242Z,17.00
2022-09-16T06:59:10.455Z,17.10
2022-09-16T07:01:39.000Z,17.20
2022-09-16T07:04:10.523Z,17.20
2022-09-16T07:09:29.129Z,17.20
2022-09-16T07:11:59.269Z,17.10
2022-09-16T07:14:27.863Z,17.10
2022-09-16T07:16:56.304Z,17.10
2022-09-16T07:19:25.052Z,17.10
2022-09-16T07:21:53.603Z,17.20
2022-09-16T07:24:25.039Z,17.20
2022-09-16T07:26:54.772Z,17.20
2022-09-16T07:29:23.175Z,17.20
2022-09-16T07:31:51.651Z,17.20
2022-09-16T07:34:20.463Z,17.10
2022-09-16T07:36:50.116Z,17.00
2022-09-16T07:39:19.836Z,16.90
2022-09-16T07:41:49.504Z,16.80
2022-09-16T07:44:20.638Z,16.80
2022-09-16T07:46:51.140Z,16.70
2022-09-16T07:49:20.237Z,16.70
2022-09-16T07:51:49.075Z,16.70
2022-09-16T07:54:19.000Z,16.60
2022-09-16T07:56:47.455Z,16.60
2022-09-16T07:59:19.065Z,16.60
2022-09-16T08:01:49.993Z,16.50
2022-09-16T08:04:19.415Z,16.50
2022-09-16T08:06:48.321Z,16.50
2022-09-16T08:12:07.939Z,16.40
2022-09-16T08:14:36.750Z,16.30
2022-09-16T08:17:07.561Z,16.30
2022-09-16T08:19:36.008Z,16.20
2022-09-16T08:22:04.576Z,16.20
2022-09-16T08:24:33.255Z,16.20
2022-09-16T08:27:01.683Z,16.20
2022-09-16T08:29:30.099Z,16.10
2022-09-16T08:31:58.593Z,16.20
2022-09-16T08:34:28.497Z,16.40
2022-09-16T08:36:56.911Z,16.40
2022-09-16T08:39:25.422Z,16.40
2022-09-16T08:42:10.468Z,16.30
2022-09-16T08:44:43.503Z,16.20
2022-09-16T08:47:20.367Z,16.20
2022-09-16T08:49:53.155Z,16.20
2022-09-16T08:52:31.998Z,16.10
2022-09-16T08:55:03.104Z,16.00
2022-09-16T08:57:35.503Z,16.00
2022-09-16T09:00:08.583Z,16.00
2022-09-16T09:05:19.222Z,15.90
2022-09-16T09:07:54.969Z,15.90
2022-09-16T09:10:27.359Z,16.00
2022-09-16T09:13:03.035Z,16.10
2022-09-16T09:15:39.422Z,16.00
2022-09-16T09:18:23.321Z,16.00
2022-09-16T09:20:58.539Z,15.80
2022-09-16T09:23:39.859Z,15.90
2022-09-16T09:26:13.707Z,15.80
2022-09-16T09:29:08.807Z,15.70
2022-09-16T09:31:45.345Z,15.80
2022-09-16T09:34:23.679Z,15.80
2022-09-16T09:37:01.951Z,15.80
2022-09-16T09:39:45.326Z,15.80
2022-09-16T09:42:17.760Z,15.70
2022-09-16T09:44:51.777Z,15.70
2022-09-16T09:47:24.573Z,15.70
2022-09-16T09:49:56.800Z,15.70
2022-09-16T09:52:31.939Z,15.70
2022-09-16T09:55:16.291Z,15.80
2022-09-16T09:58:01.629Z,15.80
2022-09-16T10:00:30.040Z,15.80
2022-09-16T10:03:05.759Z,15.60
2022-09-16T10:05:34.558Z,15.60
2022-09-16T10:08:11.943Z,15.50
2022-09-16T10:10:49.859Z,15.40
2022-09-16T10:13:19.531Z,15.40
2022-09-16T10:15:52.046Z,15.30
2022-09-16T10:18:27.103Z,15.30
2022-09-16T10:21:03.092Z,15.20
2022-09-16T10:23:33.592Z,15.10
2022-09-16T10:26:23.414Z,15.10
2022-09-16T10:28:56.463Z,15.00
2022-09-16T10:31:29.174Z,14.80
2022-09-16T10:34:01.300Z,14.80
2022-09-16T10:36:33.445Z,14.90
2022-09-16T10:39:05.615Z,14.90
2022-09-16T10:41:36.631Z,14.90
2022-09-16T10:44:16.622Z,14.90
2022-09-16T10:46:52.909Z,15.00
2022-09-16T10:49:24.520Z,15.10
2022-09-16T10:51:53.083Z,15.20
2022-09-16T10:54:29.882Z,15.20
2022-09-16T10:56:58.550Z,15.20
2022-09-16T10:59:27.019Z,15.20
2022-09-16T11:02:01.410Z,15.10
2022-09-16T11:04:56.279Z,15.20
2022-09-16T11:07:36.059Z,15.40
2022-09-16T11:10:12.519Z,15.50
2022-09-16T11:13:01.979Z,15.70
2022-09-16T11:15:39.260Z,16.00
2022-09-16T11:18:21.467Z,16.20
2022-09-16T11:21:02.295Z,16.50
2022-09-16T11:24:01.132Z,16.80
2022-09-16T11:26:37.179Z,16.90
2022-09-16T11:29:19.348Z,16.70
2022-09-16T11:31:55.169Z,16.60
2022-09-16T11:34:36.033Z,16.50
2022-09-16T11:37:10.049Z,16.40
2022-09-16T11:39:52.411Z,16.20
2022-09-16T11:42:28.735Z,16.20
2022-09-16T11:45:03.029Z,16.20
2022-09-16T11:47:56.855Z,16.00
2022-09-16T11:50:38.565Z,16.00
2022-09-16T11:53:34.909Z,16.00
2022-09-16T11:56:08.836Z,15.90
2022-09-16T11:58:45.211Z,15.80
2022-09-16T12:01:20.309Z,15.90
2022-09-16T12:03:52.351Z,15.80
2022-09-16T12:06:25.078Z,15.80
2022-09-16T12:08:56.541Z,15.80
2022-09-16T12:11:32.991Z,15.70
2022-09-16T12:14:10.055Z,15.80
2022-09-16T12:16:43.124Z,15.80
2022-09-16T12:19:15.806Z,15.80
2022-09-16T12:21:49.039Z,15.80
2022-09-16T12:24:23.381Z,15.90
2022-09-16T12:26:57.177Z,15.80
2022-09-16T12:29:34.814Z,15.80
2022-09-16T12:32:06.874Z,15.80
2022-09-16T12:34:39.140Z,15.70
2022-09-16T12:37:22.559Z,15.80
2022-09-16T12:39:51.234Z,15.90
2022-09-16T12:43:02.179Z,15.90
2022-09-16T12:45:45.442Z,15.80
2022-09-16T12:48:32.782Z,15.80
2022-09-16T12:51:10.266Z,15.70
2022-09-16T12:54:01.762Z,15.60
2022-09-16T12:56:44.215Z,15.50
2022-09-16T12:59:34.304Z,15.50
2022-09-16T13:02:07.296Z,15.50
2022-09-16T13:04:39.898Z,15.40
2022-09-16T13:07:08.728Z,15.40
2022-09-16T13:09:39.059Z,15.30
2022-09-16T13:12:42.765Z,15.30
2022-09-16T13:15:09.624Z,15.20
2022-09-16T13:17:40.582Z,15.20
2022-09-16T13:20:16.702Z,15.10
2022-09-16T13:22:48.696Z,15.10
2022-09-16T13:25:23.394Z,14.90
2022-09-16T13:27:58.468Z,14.80
2022-09-16T13:30:32.858Z,14.70
2022-09-16T13:33:05.201Z,14.60
2022-09-16T13:35:40.153Z,14.60
2022-09-16T13:38:39.834Z,14.50
2022-09-16T13:41:09.476Z,14.50
2022-09-16T13:43:49.543Z,14.60
2022-09-16T13:46:30.177Z,14.70
2022-09-16T13:49:13.820Z,14.80
2022-09-16T13:51:45.411Z,14.90
2022-09-16T13:54:28.484Z,14.90
2022-09-16T13:57:18.744Z,15.00
2022-09-16T14:00:08.605Z,15.10
2022-09-16T14:02:49.223Z,15.10
2022-09-16T14:05:54.279Z,15.20
2022-09-16T14:08:31.180Z,15.20
2022-09-16T14:11:03.363Z,15.10
2022-09-16T14:13:39.404Z,15.10
2022-09-16T14:16:14.782Z,15.10
2022-09-16T14:18:45.718Z,14.90
2022-09-16T14:21:21.138Z,14.90
2022-09-16T14:23:51.079Z,14.90
2022-09-16T14:26:21.226Z,15.00
2022-09-16T14:28:50.087Z,15.00
2022-09-16T14:31:21.747Z,14.90
2022-09-16T14:33:56.546Z,15.00
2022-09-16T14:36:27.484Z,14.90
2022-09-16T14:39:00.375Z,14.90
2022-09-16T14:41:38.504Z,15.00
2022-09-16T14:44:10.106Z,15.00
2022-09-16T14:46:43.752Z,15.00
2022-09-16T14:49:13.114Z,15.00
2022-09-16T14:51:45.306Z,15.00
2022-09-16T14:54:19.557Z,15.10
2022-09-16T14:56:58.834Z,15.10
2022-09-16T14:59:29.358Z,15.20
2022-09-16T15:02:01.585Z,15.20
2022-09-16T15:04:33.107Z,15.20
2022-09-16T15:07:11.912Z,15.20
2022-09-16T15:09:46.054Z,15.20
2022-09-16T15:12:27.281Z,15.30
2022-09-16T15:14:55.819Z,15.10
2022-09-16T15:17:26.991Z,15.10
2022-09-16T15:19:58.663Z,15.00
2022-09-16T15:22:27.850Z,15.10
2022-09-16T15:24:59.503Z,15.10
2022-09-16T15:27:31.739Z,15.00
2022-09-16T15:30:05.464Z,15.00
2022-09-16T15:32:44.486Z,14.90
2022-09-16T15:35:23.167Z,14.90
2022-09-16T15:37:52.131Z,14.90
2022-09-16T15:40:34.814Z,14.90
2022-09-16T15:43:15.812Z,15.00
2022-09-16T15:45:45.439Z,14.90
2022-09-16T15:48:18.059Z,15.00
2022-09-16T15:50:49.289Z,14.90
2022-09-16T15:53:20.805Z,15.00
2022-09-16T15:55:58.743Z,15.00
2022-09-16T15:58:39.587Z,14.90
2022-09-16T16:01:16.929Z,14.90
2022-09-16T16:03:56.035Z,14.90
2022-09-16T16:06:46.227Z,14.90
2022-09-16T16:09:39.246Z,14.80
2022-09-16T16:12:11.944Z,14.70
2022-09-16T16:14:41.523Z,14.70
2022-09-16T16:17:13.863Z,14.70
2022-09-16T16:19:43.309Z,14.80
2022-09-16T16:22:12.330Z,14.70
2022-09-16T16:24:40.912Z,14.60
2022-09-16T16:27:11.255Z,14.60
2022-09-16T16:29:39.710Z,14.60
2022-09-16T16:32:10.280Z,14.60
2022-09-16T16:34:39.923Z,14.60
2022-09-16T16:37:08.991Z,14.60
2022-09-16T16:39:37.950Z,14.60
2022-09-16T16:42:06.854Z,14.60
2022-09-16T16:44:36.641Z,14.60
2022-09-16T16:47:05.531Z,14.60
2022-09-16T16:49:35.121Z,14.60
2022-09-16T16:52:05.126Z,14.60
2022-09-16T16:54:33.956Z,14.60
2022-09-16T16:57:03.535Z,14.60
2022-09-16T16:59:32.414Z,14.60
2022-09-16T17:02:03.999Z,14.60
2022-09-16T17:04:32.604Z,14.60
2022-09-16T17:07:24.638Z,14.50
2022-09-16T17:09:50.442Z,14.50
2022-09-16T17:12:18.921Z,14.60
2022-09-16T17:14:47.446Z,14.60
2022-09-16T17:17:17.322Z,14.60
2022-09-16T17:19:45.762Z,14.60
2022-09-16T17:22:14.186Z,14.60
2022-09-16T17:24:42.650Z,14.70
2022-09-16T17:27:11.087Z,14.80
2022-09-16T17:29:39.687Z,14.80
2022-09-16T17:32:08.170Z,14.90
2022-09-16T17:34:37.954Z,14.80
2022-09-16T17:37:08.557Z,14.80
2022-09-16T17:39:38.403Z,14.80
2022-09-16T17:42:07.018Z,14.80
2022-09-16T17:44:35.515Z,14.80
2022-09-16T17:47:04.143Z,14.80
2022-09-16T17:49:32.845Z,14.80
2022-09-16T17:52:03.004Z,14.80
2022-09-16T17:54:31.533Z,14.80
2022-09-16T17:56:59.999Z,14.70
2022-09-16T17:59:28.393Z,14.70
2022-09-16T18:01:56.936Z,14.70
2022-09-16T18:04:25.463Z,14.70
2022-09-16T18:06:58.263Z,14.80
2022-09-16T18:09:28.047Z,14.80
2022-09-16T18:11:58.364Z,14.80
2022-09-16T18:14:26.799Z,14.80
2022-09-16T18:16:55.329Z,14.80
2022-09-16T18:19:23.783Z,14.80
2022-09-16T18:21:52.391Z,14.90
2022-09-16T18:24:20.921Z,14.90
2022-09-16T18:26:50.738Z,14.80
2022-09-16T18:29:19.259Z,14.90
2022-09-16T18:31:49.101Z,14.90
2022-09-16T18:34:18.599Z,14.90
2022-09-16T18:36:47.384Z,14.90
2022-09-16T18:39:17.477Z,14.90
2022-09-16T18:41:46.569Z,14.90
2022-09-16T18:44:17.806Z,14.90
2022-09-16T18:46:46.495Z,14.90
2022-09-16T18:49:16.262Z,14.80
2022-09-16T18:51:50.544Z,14.80
2022-09-16T18:54:24.543Z,14.80
2022-09-16T18:56:55.719Z,14.70
2022-09-16T18:59:28.404Z,14.80
2022-09-16T19:01:58.685Z,14.80
2022-09-16T19:04:28.949Z,14.70
2022-09-16T19:06:59.416Z,14.70
2022-09-16T19:09:27.914Z,14.70
2022-09-16T19:11:56.534Z,14.80
2022-09-16T19:14:27.522Z,14.70
2022-09-16T19:16:56.242Z,14.70
2022-09-16T19:19:24.702Z,14.70
2022-09-16T19:21:53.198Z,14.70
2022-09-16T19:24:23.033Z,14.70
2022-09-16T19:26:52.988Z,14.70
2022-09-16T19:29:22.315Z,14.70
2022-09-16T19:31:53.352Z,14.60
2022-09-16T19:34:22.663Z,14.60
2022-09-16T19:36:51.658Z,14.70
2022-09-16T19:39:21.292Z,14.70
2022-09-16T19:41:49.939Z,14.60
2022-09-16T19:44:19.505Z,14.60
2022-09-16T19:46:49.321Z,14.60
2022-09-16T19:49:22.916Z,14.70
2022-09-16T19:51:52.586Z,14.70
2022-09-16T19:54:23.916Z,14.70
2022-09-16T19:56:52.515Z,14.70
2022-09-16T19:59:22.263Z,14.60
2022-09-16T20:01:51.351Z,14.70
2022-09-16T20:04:21.514Z,14.60
2022-09-16T20:06:50.338Z,14.70
2022-09-16T20:09:19.594Z,14.70
2022-09-16T20:11:48.780Z,14.70
2022-09-16T20:14:19.946Z,14.70
2022-09-16T20:16:49.330Z,14.70
2022-09-16T20:19:19.922Z,14.70
2022-09-16T20:21:49.935Z,14.80
2022-09-16T20:24:20.327Z,14.70
2022-09-16T20:26:49.148Z,14.70
2022-09-16T20:29:18.386Z,14.70
2022-09-16T20:31:47.640Z,14.80
2022-09-16T20:34:16.396Z,14.80
2022-09-16T20:36:46.114Z,14.80
2022-09-16T20:39:16.574Z,14.80
2022-09-16T20:41:49.760Z,14.80
2022-09-16T20:44:18.345Z,14.70
2022-09-16T20:46:48.179Z,14.70
2022-09-16T20:49:18.579Z,14.70
2022-09-16T20:51:47.479Z,14.70
2022-09-16T20:54:17.660Z,14.70
2022-09-16T20:56:49.317Z,14.70
2022-09-16T20:59:20.087Z,14.70
2022-09-16T21:01:49.573Z,14.70
2022-09-16T21:04:19.490Z,14.70
2022-09-16T21:06:48.230Z,14.70
2022-09-16T21:09:19.151Z,14.80
2022-09-16T21:11:48.102Z,15.00
2022-09-16T21:14:17.237Z,15.20
2022-09-16T21:16:47.011Z,15.40
2022-09-16T21:19:16.754Z,15.60
2022-09-16T21:21:47.858Z,15.70
2022-09-16T21:24:18.501Z,15.80
2022-09-16T21:26:47.270Z,15.90
2022-09-16T21:29:18.928Z,16.00
2022-09-16T21:31:48.520Z,16.10
2022-09-16T21:34:18.246Z,16.20
2022-09-16T21:36:46.765Z,16.20
2022-09-16T21:39:17.535Z,16.10
2022-09-16T21:41:46.814Z,16.20
2022-09-16T21:44:15.728Z,16.00
2022-09-16T21:46:46.332Z,15.90
2022-09-16T21:49:22.742Z,15.90
2022-09-16T21:51:52.047Z,15.80
2022-09-16T21:54:22.081Z,15.70
2022-09-16T21:56:51.411Z,15.60
2022-09-16T21:59:20.650Z,15.60
2022-09-16T22:01:49.936Z,15.70
2022-09-16T22:04:20.284Z,15.80
2022-09-16T22:06:49.841Z,15.80
2022-09-16T22:09:18.785Z,15.80
2022-09-16T22:11:48.570Z,15.70
2022-09-16T22:14:17.092Z,15.60
2022-09-16T22:16:45.875Z,15.50
2022-09-16T22:19:16.906Z,15.40
2022-09-16T22:21:46.786Z,15.40
2022-09-16T22:24:16.252Z,15.50
2022-09-16T22:26:44.917Z,15.60
2022-09-16T22:29:14.871Z,15.80
2022-09-16T22:31:43.337Z,15.90
2022-09-16T22:34:12.026Z,15.90
2022-09-16T22:36:40.547Z,15.90
2022-09-16T22:39:13.017Z,15.90
2022-09-16T22:41:41.494Z,15.90
2022-09-16T22:44:09.911Z,15.90
2022-09-16T22:46:43.303Z,15.70
2022-09-16T22:49:12.358Z,15.60
2022-09-16T22:51:41.299Z,15.60
2022-09-16T22:54:10.166Z,15.60
2022-09-16T22:56:38.663Z,15.70
2022-09-16T22:59:08.405Z,15.60
2022-09-16T23:01:39.512Z,15.60
2022-09-16T23:04:11.238Z,15.70
2022-09-16T23:06:41.346Z,15.70
2022-09-16T23:09:11.661Z,15.60
2022-09-16T23:11:40.290Z,15.50
2022-09-16T23:14:10.833Z,15.40
2022-09-16T23:16:39.497Z,15.30
2022-09-16T23:19:11.535Z,15.20
2022-09-16T23:21:40.421Z,15.30
2022-09-16T23:24:10.291Z,15.40
2022-09-16T23:26:39.406Z,15.50
2022-09-16T23:29:09.513Z,15.50
2022-09-16T23:31:40.576Z,15.50
2022-09-16T23:34:13.795Z,15.50
2022-09-16T23:36:43.123Z,15.40
2022-09-16T23:39:15.033Z,15.40
2022-09-16T23:41:44.291Z,15.50
2022-09-16T23:44:14.463Z,15.60
2022-09-16T23:46:42.989Z,15.70
2022-09-16T23:49:13.280Z,15.70
2022-09-16T23:51:41.692Z,15.70
2022-09-16T23:54:10.235Z,15.70
2022-09-16T23:56:38.676Z,15.80
2022-09-16T23:59:07.069Z,15.70
